Rufe, Oklahoma
Current Conditions -  °F | °C
As of 4:15 PM on Monday 26 Jan 2015 (Local Time) from K4O4 Reporting Station
Clear Clear  
Wind Chill: 64°   Ceiling: Unl
Heat Index: 64°   Visibility: 10mi
Dew Point: 34°   Wind: 10mph
Humidity: 32%   Direction: 250°WSW
Pressure: 30.04"   Gusts: NA
Location:  34.12°N, 95.14°W
Report Text: K4O4 262215Z AUTO 25009KT 10SM CLR 18/01 A3004 RMK AO2
Loading
Personal Weather Stations






























Interactive Weather Map New forecast layout! Learn more

10-Day Weather Forecast

Advertisements
Track Severe Weather on mobile